Time;durP1;ratioP1;P1;durP2;ratioP2;P2;SDS_P1;SDS_P2;PMS_P1;PMS_P2;Temp;Humidity;BMP_temperature;BMP_pressure;BME280_temperature;BME280_humidity;BME280_pressure;Samples;Min_cycle;Max_cycle;Signal;HPM_P1;HPM_P2
2023/12/26 00:05:27;;;;;;;0.30;0.30;;;;;;;11.22;100.00;74993.22;6214878;23;20048;-88
2023/12/26 00:07:54;;;;;;;0.20;0.20;;;;;;;11.34;100.00;75009.75;6206148;23;20345;-88
2023/12/26 00:10:20;;;;;;;0.20;0.20;;;;;;;11.45;100.00;75017.34;6207817;23;20006;-88
2023/12/26 00:12:53;;;;;;;0.20;0.20;;;;;;;11.35;100.00;75006.00;6206769;23;20053;-88
2023/12/26 00:15:35;;;;;;;0.20;0.20;;;;;;;10.99;100.00;74969.13;6208216;23;20036;-87
2023/12/26 00:18:20;;;;;;;0.20;0.20;;;;;;;11.36;100.00;75007.19;6209238;23;20081;-85
2023/12/26 00:21:01;;;;;;;0.20;0.20;;;;;;;11.50;100.00;75029.47;6204675;23;19997;-87
2023/12/26 00:23:45;;;;;;;0.20;0.20;;;;;;;11.31;100.00;75004.00;6182038;23;20013;-86
2023/12/26 00:26:10;;;;;;;0.20;0.20;;;;;;;11.20;100.00;74990.84;6169060;23;20024;-87
2023/12/26 00:28:37;;;;;;;0.20;0.20;;;;;;;11.43;100.00;75017.72;6177868;23;19998;-87
2023/12/26 00:34:26;;;;;;;0.20;0.20;;;;;;;11.73;100.00;75055.78;6066255;23;20042;-87
2023/12/26 00:36:55;;;;;;;0.20;0.20;;;;;;;11.23;100.00;74997.78;6144256;23;20005;-87
2023/12/26 00:39:27;;;;;;;0.30;0.30;;;;;;;11.41;100.00;75020.88;6153301;23;20002;-87
2023/12/26 00:42:04;;;;;;;0.20;0.20;;;;;;;11.20;100.00;74996.38;6178917;23;19998;-87
2023/12/26 00:44:32;;;;;;;0.20;0.20;;;;;;;11.35;100.00;75008.78;6177531;23;20132;-87
2023/12/26 00:50:29;;;;;;;0.20;0.20;;;;;;;11.57;100.00;75031.13;6175649;23;20012;-87
2023/12/26 00:53:11;;;;;;;0.20;0.20;;;;;;;11.55;100.00;75032.06;6156787;23;20010;-87
2023/12/26 00:56:26;;;;;;;0.20;0.20;;;;;;;11.70;100.00;75052.19;6176084;23;20016;-87
2023/12/26 00:59:02;;;;;;;0.20;0.20;;;;;;;11.70;100.00;75046.63;6155711;23;20024;-87
2023/12/26 01:01:42;;;;;;;0.20;0.20;;;;;;;11.77;100.00;75061.16;6150638;23;19982;-86
2023/12/26 01:14:33;;;;;;;0.20;0.20;;;;;;;11.62;100.00;75042.63;6152398;23;20021;-88
2023/12/26 01:17:37;;;;;;;0.30;0.30;;;;;;;11.91;100.00;75074.53;6118415;23;20017;-88
2023/12/26 01:24:14;;;;;;;0.20;0.20;;;;;;;11.77;100.00;75060.53;6151805;23;20020;-87
2023/12/26 01:26:56;;;;;;;0.25;0.25;;;;;;;11.80;100.00;75064.13;6136326;23;20041;-87
2023/12/26 01:29:44;;;;;;;0.30;0.30;;;;;;;11.90;100.00;75076.13;6179881;23;20028;-88
2023/12/26 01:33:12;;;;;;;0.30;0.30;;;;;;;11.29;100.00;75001.59;6180037;23;20033;-87
2023/12/26 01:35:40;;;;;;;0.30;0.30;;;;;;;11.22;100.00;74996.59;6185570;23;20013;-87
2023/12/26 01:42:04;;;;;;;0.20;0.20;;;;;;;11.32;100.00;75007.94;6182752;23;19997;-87
2023/12/26 01:44:38;;;;;;;0.20;0.20;;;;;;;11.32;100.00;75007.34;6143628;23;20041;-86
2023/12/26 01:47:55;;;;;;;0.30;0.30;;;;;;;11.48;100.00;75021.53;6171292;23;20003;-87
2023/12/26 01:50:48;;;;;;;0.20;0.20;;;;;;;11.53;100.00;75030.28;6154006;23;20048;-87
2023/12/26 01:54:09;;;;;;;0.20;0.20;;;;;;;11.67;100.00;75049.19;6183493;23;20020;-87
2023/12/26 01:57:07;;;;;;;0.30;0.30;;;;;;;11.46;100.00;75024.09;6181901;23;19989;-86
2023/12/26 02:06:40;;;;;;;0.20;0.20;;;;;;;11.71;100.00;75051.19;6140298;23;20008;-88
2023/12/26 02:09:43;;;;;;;0.20;0.20;;;;;;;11.94;100.00;75080.91;6178250;23;20005;-87
2023/12/26 02:15:19;;;;;;;0.20;0.20;;;;;;;11.74;100.00;75056.97;6182121;23;19920;-87
2023/12/26 02:18:05;;;;;;;0.20;0.20;;;;;;;11.77;100.00;75055.00;6180908;23;20119;-87
2023/12/26 02:24:52;;;;;;;0.20;0.20;;;;;;;11.52;100.00;75031.88;6181089;23;20028;-87
2023/12/26 02:27:23;;;;;;;0.30;0.30;;;;;;;11.76;100.00;75059.94;6180715;23;19992;-87
2023/12/26 02:30:17;;;;;;;0.30;0.30;;;;;;;11.93;100.00;75084.66;6180302;23;20053;-88
2023/12/26 02:33:13;;;;;;;0.20;0.20;;;;;;;11.59;100.00;75034.09;6181480;23;20017;-87
2023/12/26 02:35:40;;;;;;;0.30;0.30;;;;;;;11.81;100.00;75062.56;6153497;23;19993;-87
2023/12/26 02:39:14;;;;;;;0.20;0.20;;;;;;;11.53;100.00;75035.81;6181783;23;20005;-88
2023/12/26 02:42:33;;;;;;;0.20;0.20;;;;;;;11.73;100.00;75055.78;6150570;23;20002;-88
2023/12/26 02:45:27;;;;;;;0.30;0.30;;;;;;;11.71;100.00;75047.84;6182991;23;20009;-87
2023/12/26 02:50:37;;;;;;;0.20;0.20;;;;;;;11.48;100.00;75027.06;6167936;22;20025;-87
2023/12/26 02:53:29;;;;;;;0.30;0.30;;;;;;;11.76;100.00;75062.13;6211043;23;20008;-87
2023/12/26 02:55:54;;;;;;;0.20;0.20;;;;;;;11.59;100.00;75039.63;6183286;23;20021;-87
2023/12/26 02:58:25;;;;;;;0.20;0.20;;;;;;;11.87;100.00;75066.97;6185366;23;19989;-86
2023/12/26 03:01:10;;;;;;;0.20;0.20;;;;;;;11.68;100.00;75047.63;6185355;23;20024;-87
2023/12/26 03:04:31;;;;;;;0.20;0.20;;;;;;;11.86;100.00;75071.34;6162077;23;20004;-88
2023/12/26 03:07:50;;;;;;;0.20;0.20;;;;;;;11.85;100.00;75064.59;6211835;23;20012;-88
2023/12/26 03:10:50;;;;;;;0.30;0.30;;;;;;;11.49;100.00;75027.66;6204165;23;20008;-87
2023/12/26 03:13:38;;;;;;;0.20;0.20;;;;;;;11.88;100.00;75067.59;6109054;23;19994;-88
2023/12/26 03:16:06;;;;;;;0.20;0.20;;;;;;;11.85;100.00;75070.16;6181656;23;19990;-87
2023/12/26 03:18:32;;;;;;;0.20;0.20;;;;;;;11.62;100.00;75042.63;6181493;23;20010;-87
2023/12/26 03:20:58;;;;;;;0.30;0.30;;;;;;;11.93;100.00;75085.25;6180800;23;19986;-87
2023/12/26 03:23:24;;;;;;;0.25;0.25;;;;;;;11.98;100.00;75082.91;6173768;23;20049;-86
2023/12/26 03:25:50;;;;;;;0.20;0.20;;;;;;;11.84;100.00;75068.94;6148401;23;20057;-87
2023/12/26 03:28:16;;;;;;;0.20;0.20;;;;;;;12.01;100.00;75092.03;6173880;23;20016;-85
2023/12/26 03:30:41;;;;;;;0.30;0.30;;;;;;;11.64;100.00;75045.00;6169957;23;20104;-85
2023/12/26 03:33:08;;;;;;;0.20;0.20;;;;;;;11.83;100.00;75065.00;6175154;23;20005;-86
2023/12/26 03:35:34;;;;;;;0.20;0.20;;;;;;;11.84;100.00;75068.34;6178823;23;20009;-87
2023/12/26 03:38:01;;;;;;;0.20;0.20;;;;;;;11.91;100.00;75080.09;6179695;23;20029;-87
2023/12/26 03:40:30;;;;;;;0.20;0.20;;;;;;;11.82;100.00;75063.78;6154058;23;20073;-87
2023/12/26 03:56:46;;;;;;;0.20;0.20;;;;;;;11.90;100.00;75076.13;6195096;23;20029;-87
2023/12/26 03:59:45;;;;;;;0.20;0.20;;;;;;;11.59;100.00;75036.25;6176887;23;20048;-87
2023/12/26 04:02:14;;;;;;;0.30;0.30;;;;;;;11.67;100.00;75049.19;6210382;23;20001;-87
2023/12/26 04:05:21;;;;;;;0.20;0.20;;;;;;;11.70;100.00;75052.19;6205349;23;20001;-87
2023/12/26 04:08:24;;;;;;;0.30;0.30;;;;;;;11.71;100.00;75047.84;6139783;23;20025;-87
2023/12/26 04:16:11;;;;;;;0.20;0.20;;;;;;;11.73;100.00;75058.56;6148977;23;20018;-85
2023/12/26 04:19:14;;;;;;;0.30;0.30;;;;;;;11.83;100.00;75067.75;6204566;23;20004;-86
2023/12/26 04:21:55;;;;;;;0.20;0.20;;;;;;;11.75;100.00;75058.75;6209209;23;20009;-87
2023/12/26 04:24:35;;;;;;;0.20;0.20;;;;;;;11.46;100.00;75024.09;6186798;23;20009;-86
2023/12/26 04:27:10;;;;;;;0.20;0.20;;;;;;;11.30;100.00;75005.56;6206676;23;20009;-87
2023/12/26 04:29:38;;;;;;;0.20;0.20;;;;;;;11.48;100.00;75027.06;6182202;23;20001;-87
2023/12/26 04:32:11;;;;;;;0.30;0.30;;;;;;;11.20;100.00;74990.84;6208241;23;20009;-87
2023/12/26 04:34:40;;;;;;;0.20;0.20;;;;;;;11.33;100.00;75009.13;6184077;23;20015;-88
2023/12/26 04:46:25;;;;;;;0.20;0.20;;;;;;;11.15;100.00;74991.00;6204131;22;20029;-88
2023/12/26 04:48:55;;;;;;;0.30;0.30;;;;;;;11.16;100.00;74988.81;6213122;23;20060;-87
2023/12/26 04:51:29;;;;;;;0.20;0.20;;;;;;;11.00;100.00;74970.91;6163169;23;20008;-88
2023/12/26 04:54:12;;;;;;;0.20;0.20;;;;;;;11.28;100.00;75003.16;6184051;23;20032;-87
2023/12/26 04:56:48;;;;;;;0.30;0.30;;;;;;;11.19;100.00;74993.03;6188791;23;19993;-88
2023/12/26 05:03:24;;;;;;;0.20;0.20;;;;;;;11.40;100.00;75014.75;6150959;23;20085;-89
2023/12/26 05:19:39;;;;;;;0.20;0.20;;;;;;;11.50;100.00;75029.47;6119859;23;20023;-86
2023/12/26 05:26:40;;;;;;;0.20;0.20;;;;;;;11.46;100.00;75021.91;6126120;23;20050;-89
2023/12/26 05:36:07;;;;;;;0.20;0.20;;;;;;;11.13;100.00;74990.75;6147136;23;20035;-89
2023/12/26 05:39:24;;;;;;;0.20;0.20;;;;;;;11.17;100.00;74987.25;6211828;23;20016;-88
2023/12/26 05:42:17;;;;;;;0.20;0.20;;;;;;;11.02;100.00;74973.31;6211890;23;20005;-88
2023/12/26 05:45:17;;;;;;;0.20;0.20;;;;;;;10.72;100.00;74932.50;6185403;23;19997;-88
2023/12/26 05:48:23;;;;;;;0.30;0.30;;;;;;;10.92;100.00;74961.34;6185744;23;20009;-88
2023/12/26 05:50:55;;;;;;;0.28;0.28;;;;;;;10.77;100.00;74940.06;6207523;23;20001;-88
2023/12/26 05:53:29;;;;;;;0.30;0.30;;;;;;;10.98;100.00;74965.75;6157515;23;20013;-87
2023/12/26 05:55:57;;;;;;;0.20;0.20;;;;;;;11.05;100.00;74975.69;6209983;23;20012;-88
2023/12/26 05:58:33;;;;;;;0.30;0.30;;;;;;;10.91;100.00;74962.91;6184513;23;20032;-88
2023/12/26 06:16:01;;;;;;;0.20;0.20;;;;;;;11.31;100.00;75004.00;6131376;23;20029;-88
2023/12/26 06:18:27;;;;;;;0.20;0.20;;;;;;;11.09;100.00;74974.94;6101402;23;20024;-87
2023/12/26 06:20:53;;;;;;;0.20;0.20;;;;;;;10.99;100.00;74972.47;6151485;23;20002;-88
2023/12/26 06:23:18;;;;;;;0.30;0.30;;;;;;;10.97;100.00;74970.09;6150246;23;20002;-87
2023/12/26 06:25:47;;;;;;;0.30;0.30;;;;;;;10.99;100.00;74969.72;6123441;23;20037;-88
2023/12/26 06:28:29;;;;;;;0.20;0.20;;;;;;;10.81;100.00;74944.81;6149665;23;20018;-88
2023/12/26 06:30:56;;;;;;;0.20;0.20;;;;;;;10.87;100.00;74955.38;6148282;23;20009;-87
2023/12/26 06:33:22;;;;;;;0.20;0.20;;;;;;;11.09;100.00;74980.47;6124481;23;20020;-87
2023/12/26 06:35:50;;;;;;;0.20;0.20;;;;;;;10.86;100.00;74954.16;6149149;23;20009;-87
2023/12/26 06:38:16;;;;;;;0.30;0.30;;;;;;;11.30;100.00;75005.56;6147753;23;20021;-88
2023/12/26 06:40:43;;;;;;;0.30;0.30;;;;;;;11.38;100.00;75015.13;6122310;23;20021;-87
2023/12/26 06:43:10;;;;;;;0.30;0.30;;;;;;;11.17;100.00;74987.25;6148039;23;20028;-88
2023/12/26 06:45:38;;;;;;;0.20;0.20;;;;;;;11.58;100.00;75032.91;6147934;23;20020;-87
2023/12/26 06:48:04;;;;;;;0.20;0.20;;;;;;;11.26;100.00;75001.38;6123235;23;19990;-88
2023/12/26 06:50:32;;;;;;;0.20;0.20;;;;;;;11.02;100.00;74967.16;6123631;23;20013;-88
2023/12/26 06:52:58;;;;;;;0.22;0.22;;;;;;;11.18;100.00;74991.81;6149208;23;20006;-88
2023/12/26 06:55:46;;;;;;;0.30;0.30;;;;;;;11.37;100.00;75013.94;6147541;23;20002;-88
2023/12/26 06:58:12;;;;;;;0.30;0.30;;;;;;;11.08;100.00;74977.09;6123815;23;20017;-87
2023/12/26 07:00:51;;;;;;;0.20;0.20;;;;;;;11.11;100.00;74982.84;6149564;23;19993;-88
2023/12/26 07:03:18;;;;;;;0.20;0.20;;;;;;;11.24;100.00;74995.63;6151176;23;20037;-88
2023/12/26 07:05:44;;;;;;;0.20;0.20;;;;;;;11.02;100.00;74972.69;6126612;23;20009;-88
2023/12/26 07:08:10;;;;;;;0.20;0.20;;;;;;;10.97;100.00;74964.56;6125159;23;20022;-88
2023/12/26 07:10:35;;;;;;;0.20;0.20;;;;;;;11.12;100.00;74986.81;6151114;23;20053;-87
2023/12/26 07:13:03;;;;;;;0.20;0.20;;;;;;;11.41;100.00;75018.13;6151238;23;19998;-87
2023/12/26 07:16:09;;;;;;;0.20;0.20;;;;;;;11.64;100.00;75042.84;6100995;23;20010;-89
2023/12/26 07:58:08;;;;;;;0.20;0.20;;;;;;;12.22;100.00;75110.44;6193634;23;20021;-88
2023/12/26 08:03:36;;;;;;;0.20;0.20;;;;;;;12.13;100.00;75103.03;6167808;23;20025;-86
2023/12/26 08:06:02;;;;;;;0.30;0.30;;;;;;;12.10;100.00;75105.00;6156478;23;19997;-86
2023/12/26 08:08:29;;;;;;;0.20;0.20;;;;;;;12.31;100.00;75126.75;6157382;23;19992;-87
2023/12/26 08:11:40;;;;;;;0.30;0.30;;;;;;;12.54;100.00;75151.47;6183202;23;20362;-88
2023/12/26 08:14:08;;;;;;;0.20;0.20;;;;;;;12.59;100.00;75151.91;6156955;23;20005;-89
2023/12/26 08:16:42;;;;;;;0.20;0.20;;;;;;;12.45;100.00;75137.34;6156592;23;19998;-87
2023/12/26 13:53:33;;;;;;;0.20;0.20;;;;;;;14.87;85.93;75418.94;6176867;23;20081;-79
2023/12/26 13:56:35;;;;;;;0.20;0.20;;;;;;;14.91;86.57;75424.34;6176580;23;20494;-82
2023/12/26 13:59:38;;;;;;;0.20;0.20;;;;;;;15.00;86.65;75440.09;6175951;23;20035;-80
2023/12/26 14:02:41;;;;;;;0.30;0.30;;;;;;;15.24;84.45;75467.66;6175747;23;20092;-81
2023/12/26 14:05:44;;;;;;;0.20;0.20;;;;;;;15.52;84.20;75495.66;6176236;23;20005;-80
2023/12/26 14:08:46;;;;;;;0.20;0.20;;;;;;;15.60;82.77;75505.22;6176396;23;20015;-80
2023/12/26 14:11:49;;;;;;;0.20;0.20;;;;;;;15.94;80.28;75544.81;6177504;23;20441;-81
2023/12/26 14:14:52;;;;;;;0.20;0.20;;;;;;;15.82;81.31;75536.63;6179140;23;20029;-79
2023/12/26 14:17:55;;;;;;;0.20;0.20;;;;;;;15.55;81.86;75495.84;6180515;23;20009;-81
2023/12/26 14:20:57;;;;;;;0.20;0.20;;;;;;;15.56;82.14;75500.44;6179055;23;20039;-82
2023/12/26 14:24:00;;;;;;;0.20;0.20;;;;;;;15.48;80.78;75490.25;6179120;23;20016;-79
2023/12/26 14:27:05;;;;;;;0.20;0.20;;;;;;;15.27;81.79;75465.66;6180508;23;20036;-79
2023/12/26 14:30:08;;;;;;;0.20;0.20;;;;;;;15.17;81.57;75454.88;6153142;23;20084;-79
2023/12/26 14:33:19;;;;;;;0.20;0.20;;;;;;;15.02;82.22;75439.72;6179923;23;20015;-79
2023/12/26 14:36:22;;;;;;;0.20;0.20;;;;;;;15.19;83.17;75460.06;6154932;23;20088;-79
2023/12/26 14:39:25;;;;;;;0.20;0.20;;;;;;;15.10;84.16;75451.47;6180397;23;20155;-80
2023/12/26 14:42:28;;;;;;;0.20;0.20;;;;;;;15.07;84.58;75445.69;6153970;23;20009;-79
2023/12/26 14:45:31;;;;;;;0.20;0.20;;;;;;;14.77;87.83;75412.53;6181293;23;20013;-79
2023/12/26 14:48:34;;;;;;;0.20;0.20;;;;;;;14.75;87.77;75410.13;6185566;23;20005;-79
2023/12/26 14:51:37;;;;;;;0.20;0.20;;;;;;;14.58;89.44;75388.19;6185408;23;20643;-80
2023/12/26 14:54:39;;;;;;;0.20;0.20;;;;;;;14.48;90.76;75370.03;6155289;23;20076;-81
2023/12/26 14:57:44;;;;;;;0.20;0.20;;;;;;;14.32;92.66;75357.00;6154601;23;20012;-81
2023/12/26 15:00:47;;;;;;;0.20;0.20;;;;;;;14.28;93.10;75352.81;6184509;23;20001;-79
2023/12/26 15:03:14;;;;;;;0.20;0.20;;;;;;;13.96;93.90;75306.75;6182562;23;20749;-80
2023/12/26 15:05:39;;;;;;;0.30;0.30;;;;;;;14.04;94.14;75321.88;6181465;23;20101;-79
2023/12/26 15:08:05;;;;;;;0.20;0.20;;;;;;;13.98;95.11;75316.91;6181557;23;20028;-80
2023/12/26 15:10:31;;;;;;;0.20;0.20;;;;;;;13.83;96.29;75297.34;6180576;23;20451;-79
2023/12/26 15:13:02;;;;;;;0.20;0.20;;;;;;;13.79;97.03;75294.72;6190390;23;20472;-78
2023/12/26 15:15:28;;;;;;;0.20;0.20;;;;;;;13.75;97.96;75287.78;6190730;23;20032;-78
2023/12/26 15:17:54;;;;;;;0.20;0.20;;;;;;;13.80;97.77;75295.94;6189461;23;20004;-79
2023/12/26 15:20:19;;;;;;;0.30;0.30;;;;;;;13.79;98.34;75291.94;6180211;23;20040;-80
2023/12/26 15:22:46;;;;;;;0.20;0.20;;;;;;;13.54;98.71;75268.78;6182592;23;20060;-81
2023/12/26 15:25:12;;;;;;;0.20;0.20;;;;;;;13.69;99.19;75288.31;6189462;23;20015;-80
2023/12/26 15:27:37;;;;;;;0.20;0.20;;;;;;;13.68;99.83;75284.34;6186760;23;20092;-80
2023/12/26 15:30:03;;;;;;;0.25;0.25;;;;;;;13.63;100.00;75273.41;6190212;23;20005;-80
2023/12/26 15:32:29;;;;;;;0.20;0.20;;;;;;;13.47;100.00;75260.41;6185613;23;20091;-81
2023/12/26 15:34:54;;;;;;;0.20;0.20;;;;;;;13.53;100.00;75264.81;6191970;23;20009;-81
2023/12/26 15:37:20;;;;;;;0.20;0.20;;;;;;;13.49;100.00;75256.66;6188956;23;20012;-80
2023/12/26 15:39:45;;;;;;;0.20;0.20;;;;;;;13.42;100.00;75251.63;6188163;23;20008;-80
2023/12/26 15:42:12;;;;;;;0.30;0.30;;;;;;;13.43;100.00;75255.03;6188159;23;20032;-79
2023/12/26 15:44:40;;;;;;;0.20;0.20;;;;;;;13.39;100.00;75245.28;6188882;23;20369;-79
2023/12/26 15:47:07;;;;;;;0.20;0.20;;;;;;;13.41;100.00;75252.63;6189350;23;20009;-79
2023/12/26 15:49:33;;;;;;;0.20;0.20;;;;;;;13.40;100.00;75252.03;6188956;23;20001;-80
2023/12/26 15:51:58;;;;;;;0.20;0.20;;;;;;;13.39;100.00;75242.50;6187373;23;20564;-79
2023/12/26 15:54:24;;;;;;;0.20;0.20;;;;;;;13.37;100.00;75245.66;6186931;23;20461;-79
2023/12/26 15:56:50;;;;;;;0.20;0.20;;;;;;;13.27;100.00;75234.28;6186180;23;20025;-79
2023/12/26 15:59:16;;;;;;;0.20;0.20;;;;;;;13.34;100.00;75239.28;6187332;23;20009;-80
2023/12/26 16:01:47;;;;;;;0.20;0.20;;;;;;;13.28;100.00;75232.72;6160990;23;20059;-80
2023/12/26 16:04:14;;;;;;;0.20;0.20;;;;;;;13.32;100.00;75240.28;6187681;23;20437;-79
2023/12/26 16:06:40;;;;;;;0.20;0.20;;;;;;;13.30;100.00;75235.09;6187376;23;20337;-81
2023/12/26 16:09:06;;;;;;;0.30;0.30;;;;;;;13.23;100.00;75231.69;6187199;23;20001;-79
2023/12/26 16:11:34;;;;;;;0.20;0.20;;;;;;;13.30;100.00;75234.50;6186076;23;20055;-80
2023/12/26 16:14:00;;;;;;;0.20;0.20;;;;;;;13.29;100.00;75236.09;6186484;23;20336;-81
2023/12/26 16:16:26;;;;;;;0.20;0.20;;;;;;;13.25;100.00;75231.88;6187538;23;20001;-80
2023/12/26 16:18:51;;;;;;;0.20;0.20;;;;;;;13.28;100.00;75234.88;6187997;23;20008;-79
2023/12/26 16:21:17;;;;;;;0.20;0.20;;;;;;;13.22;100.00;75231.09;6187580;23;20012;-80
2023/12/26 16:23:43;;;;;;;0.20;0.20;;;;;;;13.20;100.00;75228.06;6187591;23;20008;-80
2023/12/26 16:26:08;;;;;;;0.20;0.20;;;;;;;13.16;100.00;75221.09;6188390;23;20005;-79
2023/12/26 16:28:35;;;;;;;0.20;0.20;;;;;;;13.21;100.00;75229.25;6188308;23;20016;-79
2023/12/26 16:31:02;;;;;;;0.22;0.22;;;;;;;13.17;100.00;75224.47;6188302;23;20005;-79
2023/12/26 16:33:27;;;;;;;0.20;0.20;;;;;;;13.15;100.00;75222.06;6188445;23;20345;-79
2023/12/26 16:35:53;;;;;;;0.20;0.20;;;;;;;13.16;100.00;75221.09;6159801;23;20004;-79
2023/12/26 16:38:21;;;;;;;0.20;0.20;;;;;;;13.23;100.00;75226.13;6159514;23;20008;-80
2023/12/26 16:40:46;;;;;;;0.20;0.20;;;;;;;13.13;99.85;75214.13;6160981;23;20012;-79
2023/12/26 16:43:12;;;;;;;0.20;0.20;;;;;;;13.05;99.79;75208.53;6187148;23;20005;-80
2023/12/26 16:45:37;;;;;;;0.20;0.20;;;;;;;13.11;99.22;75218.50;6186272;23;20052;-79
2023/12/26 16:48:04;;;;;;;0.20;0.20;;;;;;;13.08;99.14;75212.13;6183800;23;20012;-79
2023/12/26 16:50:30;;;;;;;0.20;0.20;;;;;;;13.11;98.81;75218.50;6181909;23;20084;-79
2023/12/26 16:52:55;;;;;;;0.20;0.20;;;;;;;13.04;99.34;75203.94;6185073;23;20032;-78
2023/12/26 16:55:21;;;;;;;0.20;0.20;;;;;;;13.08;98.84;75214.28;6187728;23;20001;-79
2023/12/26 16:57:47;;;;;;;0.20;0.20;;;;;;;13.10;99.13;75216.69;6182079;23;20035;-79
2023/12/26 17:00:13;;;;;;;0.20;0.20;;;;;;;12.88;99.35;75185.41;6180512;23;20901;-78
2023/12/26 17:02:38;;;;;;;0.20;0.20;;;;;;;12.81;99.30;75182.59;6180154;23;20020;-79
2023/12/26 17:05:06;;;;;;;0.30;0.30;;;;;;;12.94;98.67;75198.13;6180595;23;20004;-79
2023/12/26 17:07:31;;;;;;;0.20;0.20;;;;;;;12.93;98.70;75194.16;6180583;23;20082;-79
2023/12/26 17:09:57;;;;;;;0.20;0.20;;;;;;;12.64;96.34;75162.25;6180402;23;20009;-79
2023/12/26 17:12:24;;;;;;;0.20;0.20;;;;;;;12.55;93.79;75152.66;6180519;23;20095;-79
2023/12/26 17:14:49;;;;;;;0.20;0.20;;;;;;;12.83;89.42;75182.19;6179741;23;20009;-78
2023/12/26 17:17:15;;;;;;;0.20;0.20;;;;;;;12.55;85.33;75152.06;6180415;23;20402;-78
2023/12/26 17:19:41;;;;;;;0.20;0.20;;;;;;;12.94;84.78;75195.34;6180609;23;20068;-78
2023/12/26 17:22:10;;;;;;;0.30;0.30;;;;;;;12.98;84.34;75202.91;6180796;23;20065;-78
2023/12/26 17:24:36;;;;;;;0.20;0.20;;;;;;;12.85;84.68;75184.59;6180613;23;20008;-79
2023/12/26 17:27:02;;;;;;;0.20;0.20;;;;;;;12.72;85.22;75166.84;6180095;23;20001;-79
2023/12/26 17:29:28;;;;;;;0.20;0.20;;;;;;;12.98;86.30;75202.91;6153599;23;20353;-79
2023/12/26 17:31:55;;;;;;;0.20;0.20;;;;;;;12.74;80.54;75165.91;6179717;23;20015;-78
2023/12/26 17:34:22;;;;;;;0.20;0.20;;;;;;;13.01;81.77;75200.97;6180319;23;20528;-78
2023/12/26 17:36:48;;;;;;;0.20;0.20;;;;;;;12.97;81.19;75198.34;6153554;23;20422;-78
2023/12/26 17:39:15;;;;;;;0.20;0.20;;;;;;;12.73;83.10;75167.44;6179793;23;20008;-78
2023/12/26 17:41:41;;;;;;;0.20;0.20;;;;;;;12.87;80.69;75186.38;6180286;23;20004;-78
2023/12/26 17:44:09;;;;;;;0.20;0.20;;;;;;;12.63;80.60;75158.28;6180331;23;20416;-78
2023/12/26 17:46:43;;;;;;;0.20;0.20;;;;;;;12.73;80.85;75170.22;6180323;23;20012;-79
2023/12/26 17:49:09;;;;;;;0.20;0.20;;;;;;;12.92;81.03;75195.75;6180544;23;20373;-78
2023/12/26 17:51:38;;;;;;;0.30;0.30;;;;;;;12.89;83.18;75186.63;6179988;23;20012;-78
2023/12/26 17:54:05;;;;;;;0.20;0.20;;;;;;;12.88;83.26;75187.59;6181535;23;20001;-78
2023/12/26 17:56:31;;;;;;;0.20;0.20;;;;;;;12.70;83.03;75169.44;6181403;23;20001;-78
2023/12/26 17:58:56;;;;;;;0.20;0.20;;;;;;;12.90;83.68;75190.00;6181185;23;20016;-78
2023/12/26 18:01:22;;;;;;;0.30;0.30;;;;;;;12.73;81.88;75168.06;6182157;23;20028;-78
2023/12/26 18:03:49;;;;;;;0.20;0.20;;;;;;;12.57;82.13;75154.47;6181329;23;20360;-77
2023/12/26 18:06:15;;;;;;;0.20;0.20;;;;;;;12.91;84.70;75191.78;6181668;23;20471;-78
2023/12/26 18:08:42;;;;;;;0.20;0.20;;;;;;;12.82;84.89;75187.16;6181584;23;20004;-77
2023/12/26 18:11:08;;;;;;;0.20;0.20;;;;;;;12.85;83.38;75181.81;6181176;23;20009;-78
2023/12/26 18:13:34;;;;;;;0.20;0.20;;;;;;;12.52;83.05;75149.09;6181110;23;20062;-77
2023/12/26 18:16:00;;;;;;;0.20;0.20;;;;;;;12.74;82.06;75174.81;6181563;23;20012;-77
2023/12/26 18:18:28;;;;;;;0.20;0.20;;;;;;;12.83;82.60;75180.00;6183816;23;20009;-77
2023/12/26 18:20:54;;;;;;;0.20;0.20;;;;;;;12.80;80.44;75181.41;6181422;23;20016;-77
2023/12/26 18:23:21;;;;;;;0.20;0.20;;;;;;;12.70;81.20;75169.44;6181652;23;20045;-78
2023/12/26 18:25:50;;;;;;;0.25;0.25;;;;;;;12.40;82.72;75134.13;6181178;23;20005;-77
2023/12/26 18:28:15;;;;;;;0.20;0.20;;;;;;;12.54;81.33;75145.34;6182026;23;20167;-78
2023/12/26 18:30:45;;;;;;;0.20;0.20;;;;;;;12.54;77.50;75145.34;6154498;23;20013;-78
2023/12/26 18:33:12;;;;;;;0.20;0.20;;;;;;;13.06;74.99;75212.50;6182721;23;20433;-77
2023/12/26 18:35:40;;;;;;;0.20;0.20;;;;;;;12.88;73.98;75190.97;6181943;23;20009;-78
2023/12/26 18:38:06;;;;;;;0.20;0.20;;;;;;;12.74;73.90;75174.22;6180317;23;20056;-77
2023/12/26 18:40:33;;;;;;;0.30;0.30;;;;;;;12.97;72.32;75201.72;6155913;23;20036;-77
2023/12/26 18:42:58;;;;;;;0.30;0.30;;;;;;;13.17;71.80;75224.47;6182419;23;20009;-78
2023/12/26 18:45:25;;;;;;;0.20;0.20;;;;;;;12.84;73.23;75184.00;6182718;23;20010;-78
2023/12/26 18:47:51;;;;;;;0.20;0.20;;;;;;;12.62;73.92;75157.06;6182075;23;20005;-78
2023/12/26 18:50:16;;;;;;;0.20;0.20;;;;;;;12.79;72.12;75180.19;6181919;23;20009;-77
2023/12/26 18:52:41;;;;;;;0.20;0.20;;;;;;;13.08;73.76;75214.88;6181976;23;20505;-77
2023/12/26 18:55:12;;;;;;;0.25;0.25;;;;;;;12.77;75.62;75175.03;6181041;23;20001;-79
2023/12/26 18:57:38;;;;;;;0.25;0.25;;;;;;;12.76;76.82;75171.06;6154561;23;20461;-78
2023/12/26 19:00:05;;;;;;;0.20;0.20;;;;;;;12.65;78.93;75164.03;6180049;23;20008;-78
2023/12/26 19:02:30;;;;;;;0.20;0.20;;;;;;;12.82;81.96;75184.38;6179150;23;20012;-78
2023/12/26 19:04:56;;;;;;;0.20;0.20;;;;;;;12.63;83.84;75155.50;6181079;23;20009;-79
2023/12/26 19:07:22;;;;;;;0.20;0.20;;;;;;;12.54;85.13;75150.88;6155310;23;20012;-78
2023/12/26 19:09:48;;;;;;;0.20;0.20;;;;;;;12.75;86.62;75173.22;6181540;23;20016;-78
2023/12/26 19:12:13;;;;;;;0.20;0.20;;;;;;;12.48;87.93;75143.72;6183023;23;20009;-78
2023/12/26 19:14:39;;;;;;;0.20;0.20;;;;;;;12.71;88.72;75165.66;6185147;23;20005;-79
2023/12/26 19:17:07;;;;;;;0.20;0.20;;;;;;;12.69;89.45;75168.22;6186720;23;20037;-78
2023/12/26 19:19:32;;;;;;;0.22;0.22;;;;;;;12.66;89.82;75159.09;6180811;23;20005;-78
2023/12/26 19:22:00;;;;;;;0.20;0.20;;;;;;;12.61;90.70;75159.25;6178809;23;20005;-78
2023/12/26 19:24:25;;;;;;;0.20;0.20;;;;;;;12.54;90.95;75148.69;6179157;23;20460;-78
2023/12/26 19:26:52;;;;;;;0.20;0.20;;;;;;;12.34;91.31;75124.78;6179001;23;20001;-78
2023/12/26 19:29:17;;;;;;;0.20;0.20;;;;;;;12.22;91.36;75113.19;6179191;23;20005;-78
2023/12/26 19:31:43;;;;;;;0.20;0.20;;;;;;;12.19;91.57;75104.06;6179242;23;20678;-78
2023/12/26 19:34:09;;;;;;;0.20;0.20;;;;;;;12.35;93.00;75128.16;6152852;23;20458;-78
2023/12/26 19:36:35;;;;;;;0.20;0.20;;;;;;;12.54;93.17;75151.47;6179190;23;20008;-78
2023/12/26 19:39:01;;;;;;;0.20;0.20;;;;;;;12.25;92.06;75109.06;6178649;23;20080;-78
2023/12/26 19:41:28;;;;;;;0.20;0.20;;;;;;;12.22;93.00;75110.44;6179688;23;20005;-77
2023/12/26 19:43:54;;;;;;;0.20;0.20;;;;;;;12.27;92.44;75119.78;6179553;23;20475;-78
2023/12/26 19:46:19;;;;;;;0.20;0.20;;;;;;;12.17;91.87;75098.91;6179802;23;20033;-78
2023/12/26 19:48:46;;;;;;;0.20;0.20;;;;;;;12.06;91.32;75089.13;6179543;23;20105;-78
2023/12/26 19:51:12;;;;;;;0.22;0.22;;;;;;;12.13;91.59;75096.88;6179227;23;20509;-79
2023/12/26 19:53:38;;;;;;;0.20;0.20;;;;;;;12.18;91.69;75111.78;6153317;23;20020;-78
2023/12/26 19:56:03;;;;;;;0.20;0.20;;;;;;;12.22;91.48;75110.44;6179442;23;20005;-78
2023/12/26 19:58:30;;;;;;;0.20;0.20;;;;;;;12.13;91.66;75100.25;6179944;23;20110;-78
2023/12/26 20:00:56;;;;;;;0.20;0.20;;;;;;;12.09;91.71;75097.63;6180171;23;20009;-78
2023/12/26 20:03:22;;;;;;;0.20;0.20;;;;;;;12.36;92.02;75129.34;6180022;23;20063;-78
2023/12/26 20:05:49;;;;;;;0.20;0.20;;;;;;;12.45;90.43;75145.66;6180349;23;20017;-79
2023/12/26 20:08:15;;;;;;;0.20;0.20;;;;;;;12.15;90.78;75104.84;6153751;23;20436;-79
2023/12/26 20:10:41;;;;;;;0.20;0.20;;;;;;;12.11;89.04;75100.03;6181497;23;20393;-78
2023/12/26 20:13:07;;;;;;;0.20;0.20;;;;;;;12.12;89.01;75096.28;6176701;23;20020;-79
2023/12/26 20:15:34;;;;;;;0.20;0.20;;;;;;;12.47;90.08;75142.50;6180566;23;20016;-78
2023/12/26 20:18:00;;;;;;;0.20;0.20;;;;;;;12.17;89.94;75102.28;6181011;23;20009;-79
2023/12/26 20:20:25;;;;;;;0.20;0.20;;;;;;;12.14;89.88;75103.63;6181485;23;20048;-78